• Join FlightAware (Why Join?)
  • Login
  • US Flag 
11:08AM EDT


 

Airport Tracker/Info


-or-


 

Live Flight TrackerFlight Track Log ✈ RPA3457 ✈ 17-Apr-2013 ✈ KBTV - KDCA

Flight Track Log - Related Links

Times and Time Zones

All times are in EDT time to prevent confusion due to time zone crossing. See the RPA3457 flight status page for this flight to view local times or setup timezone preferences in your user account.

Time Position Orientation Groundspeed Altitude Reporting Facility
EDT Latitude Longitude Course Direction KTS MPH feet Rate Location/Type
07:58AM 44.0796 -73.2952 195° South  Level FlightAware Approximate
07:58AM 44.3458 -73.2703 198° South 286 329 9,100  Level Boston Center
07:59AM 43.9818 -73.3283 194° South  Level FlightAware Approximate
07:59AM 44.2644 -73.3011 195° South 298 343 11,100  Level Boston Center
08:00AM 43.8842 -73.3622 195° South  Level FlightAware Approximate
08:00AM 44.1642 -73.3344 193° South 327 376 14,400  Level Boston Center
08:01AM 43.7871 -73.3987 195° South  Level FlightAware Approximate
08:01AM 44.0639 -73.3675 193° South 349 402 16,800  Level Boston Center
08:02AM 43.6899 -73.4351 195° South  Level FlightAware Approximate
08:02AM 43.9636 -73.4064 196° South 377 434 18,000  Level Boston Center
08:03AM 43.5937 -73.4756 198° South  Level FlightAware Approximate
08:03AM 43.8897 -73.4917 220° Southwest 357 411 20,200  Level Boston Center
08:04AM 43.4981 -73.5191 198° South  Level FlightAware Approximate
08:04AM 43.7853 -73.5272 194° South 362 417 22,500  Level Boston Center
08:05AM 43.6847 -73.5683 196° South 384 442 23,700 1,620 Climbing Boston Center
08:06AM 43.5764 -73.5864 187° South 409 471 25,800 1,800 Climbing Boston Center
08:07AM 43.4572 -73.6186 191° South 421 484 27,400 1,020 Climbing Boston Center
08:08AM 43.3403 -73.6506 191° South 431 496 28,000 300 Climbing Boston Center
08:09AM 43.2169 -73.6850 192° South 442 509 28,000  Level Boston Center
08:10AM 43.0894 -73.7139 189° South 453 521 28,000  Level Boston Center
08:11AM 42.9639 -73.7481 191° South 458 527 28,000  Level Boston Center
08:12AM 42.8386 -73.7822 191° South 463 533 28,000  Level Boston Center
08:13AM 42.7194 -73.7994 186° South 456 525 28,000  Level Boston Center
08:14AM 42.6072 -73.7856 175° South 432 497 28,000  Level Boston Center
08:15AM 42.5011 -73.7692 174° South 400 460 28,000  Level Boston Center
08:16AM 42.3908 -73.7528 174° South 400 460 28,000  Level Boston Center
08:17AM 42.2825 -73.7339 173° South 405 466 28,000  Level Boston Center
08:18AM 42.1681 -73.7203 175° South 405 466 28,000  Level Boston Center
08:19AM 42.0578 -73.7011 173° South 405 466 28,000  Level Boston Center
08:21AM 41.8258 -73.6661 174° South 417 480 28,000  Level New York Center
08:22AM 41.7131 -73.6806 185° South 417 480 28,000  Level New York Center
08:23AM 41.5997 -73.7089 191° South 441 507 28,000  Level New York Center
08:24AM 41.4783 -73.7339 189° South 455 524 28,000  Level New York Center
08:25AM 41.3528 -73.7589 189° South 455 524 28,000  Level New York Center
08:26AM 41.2336 -73.7839 189° South 444 511 28,000  Level New York Center
08:27AM 41.1192 -73.8614 207° Southwest 436 502 28,000  Level New York Center
08:28AM 41.0494 -73.9764 231° Southwest 405 466 28,000  Level New York Center
08:29AM 40.9794 -74.0914 231° Southwest 412 474 28,000  Level New York Center
08:30AM 40.9075 -74.2086 231° Southwest 417 480 28,000  Level New York Center
08:31AM 40.8353 -74.3228 230° Southwest 417 480 28,000  Level New York Center
08:32AM 40.7669 -74.4425 233° Southwest 417 480 28,000 -120 Level New York Center
08:33AM 40.6967 -74.5564 231° Southwest 412 474 27,800 -840 Descending New York Center
08:34AM 40.6261 -74.6756 232° Southwest 412 474 26,400 -1,440 Descending New York Center
08:35AM 40.5558 -74.7836 229° Southwest 407 468 25,000 -1,440 Descending New York Center
08:36AM 40.4792 -74.8936 228° Southwest 407 468 23,600 -1,440 Descending New York Center
08:37AM 40.4047 -74.9983 227° Southwest 402 463 22,200 -1,440 Descending New York Center
08:38AM 40.3322 -75.1000 227° Southwest 397 457 20,800 -1,140 Descending New York Center
08:39AM 40.2617 -75.2017 228° Southwest 392 451 20,000 -420 Descending New York Center
08:40AM 40.1892 -75.3003 226° Southwest 392 451 20,000  Level New York Center
08:41AM 40.1167 -75.3989 226° Southwest 387 445 20,000  Level New York Center
08:42AM 40.0436 -75.4997 227° Southwest 387 445 20,000  Level New York Center
08:43AM 39.9750 -75.5981 228° Southwest 387 445 20,000  Level New York Center
08:44AM 39.9064 -75.6989 228° Southwest 382 440 20,000  Level New York Center
08:45AM 39.8472 -75.8136 236° Southwest 382 440 20,000  Level New York Center
08:46AM 39.7883 -75.9256 236° Southwest 382 440 20,000 -120 Level New York Center
08:47AM 39.7314 -76.0347 236° Southwest 382 440 19,800 -1,020 Descending New York Center
08:48AM 39.6769 -76.1306 234° Southwest 377 434 18,000 -1,980 Descending New York Center
08:49AM 39.6172 -76.2472 236° Southwest 369 425 15,900 -2,040 Descending New York Center
08:51AM 39.5000 -76.3667 218° Southwest 360 414 13,100 -1,680 Descending Potomac TRACON
08:52AM 39.4333 -76.4333 218° Southwest 344 396 12,000 -660 Descending Potomac TRACON
08:53AM 39.3667 -76.5000 218° Southwest 348 400 12,000 -480 Level Potomac TRACON
08:54AM 39.2833 -76.5667 212° Southwest 347 399 11,100 -1,020 Descending Potomac TRACON
08:55AM 39.2167 -76.6333 218° Southwest 302 348 10,000 -600 Descending Potomac TRACON
08:56AM 39.1500 -76.6833 210° Southwest 293 337 10,000  Level Potomac TRACON
08:56AM 39.1000 -76.7500 226° Southwest 291 335 10,000 -120 Level Potomac TRACON
08:57AM 39.0333 -76.8167 218° Southwest 291 335 9,800 -900 Descending Potomac TRACON
08:58AM 38.9667 -76.9000 224° Southwest 283 326 8,200 -1,740 Descending Potomac TRACON
08:59AM 38.9000 -76.9500 210° Southwest 289 333 6,400 -1,200 Descending Potomac TRACON
09:00AM 38.8333 -76.9500 180° South 299 344 6,000 -300 Descending Potomac TRACON
09:01AM 38.7667 -76.9500 180° South 244 281 5,900 -540 Descending Potomac TRACON
09:02AM 38.7000 -76.9333 169° South 209 241 5,000 -480 Descending Potomac TRACON
09:03AM 38.6500 -76.9333 180° South 193 222 5,000  Level Potomac TRACON
09:04AM 38.6000 -76.9333 180° South 195 224 5,000  Level Potomac TRACON
09:05AM 38.5500 -76.9167 165° South 196 226 5,000 -120 Level Potomac TRACON
09:06AM 38.5000 -76.9167 180° South 190 219 4,800 -600 Descending Potomac TRACON
09:07AM 38.4667 -76.9500 218° Southwest 190 219 3,900 -480 Descending Potomac TRACON
09:08AM 38.4500 -77.0000 247° West 181 208 4,000  Climbing Potomac TRACON
09:09AM 38.4833 -77.0167 339° North 178 205 4,000  Level Potomac TRACON
09:10AM 38.5333 -77.0167 360° North 179 206 4,000 -120 Level Potomac TRACON
09:11AM 38.5833 -77.0167 360° North 175 201 3,800 -420 Descending Potomac TRACON
09:12AM 38.6333 -77.0167 360° North 174 200 3,200 -600 Descending Potomac TRACON
09:13AM 38.6833 -77.0333 345° North 171 197 2,600 -540 Descending Potomac TRACON
09:14AM 38.7167 -77.0333 360° North 173 199 2,200 -420 Descending Potomac TRACON